Bremerton, WA

11:03 PM PST on January 26, 2015 (GMT -0800)
Sunset Illahee | Change Station
CLOSE
Current Station
Personal Weather Station
Location: Bremerton, WA
Elevation: 325 ft
Nearby Weather Stations

Elev 325 ft 47.61 °N, 122.61 °W | Updated 12 minutes ago

Clear
Clear
46.8 °F
Feels Like 47 °F
N
0.0
Wind Variable Wind from ENE

Today
High -- | Low -- °F
--% Chance of Precip.
Yesterday
High -- | Low -- °F
Precip. -- in
7:44 AM 5:02 PM
Waxing Crescent, 51% visible
Pressure 30.00 in
Visibility 10.0 miles
Clouds Clear
Windchill 47 °F
Dew Point 46 °F
Humidity 99%
Rainfall 0.00 in
Snow Depth Not available.
UV 0 out of 12
Pollen 4.70 out of 12
Air Quality Not available.
Flu Activity Not available.
METAR KPWT 270655Z AUTO 17006KT 10SM CLR 09/09 A3000 RMK AO1

More Conditions Fewer Conditions

Pressure 30.00 in
Visibility 10.0 miles
Clouds Clear
Windchill 47 °F
Dew Point 46 °F
Humidity 99%
Rainfall 0.00 in
Snow Depth Not available.
UV 0 out of 12
Pollen 4.70 out of 12
Air Quality Not available.
Flu Activity Not available.
METAR KPWT 270655Z AUTO 17006KT 10SM CLR 09/09 A3000 RMK AO1

More Conditions Fewer Conditions

10-Day Weather Forecast

Almanac

Astronomy

Jan. 26, 2015 Rise Set
Actual Time
Civil Twilight
Nautical Twilight
Astronomical Twilight
Moon
Length of Visible Light
Length of Day
Tomorrow will be .
, % of the Moon is Illuminated

Today's Extremes

State Highs State Lows

Community

WunderPhotos

Upload Photos

1,790,544 photos uploaded!

WunderBlogs® & News

Nearby

Air Quality

  Air Quality AQ Index Pollutant
Not available.

Snow Depth

Station Depth Elevation

Earthquake Activity

City Distance Mag. Time & Date
Minimum magnitude displayed is 2.5.

Coastal Water Temperatures

Place Temperature

Nearby Weather Stations